createdAt,value
2022-11-30T00:00:54.901Z,0.00
2022-11-30T00:01:54.968Z,0.00
2022-11-30T00:02:55.128Z,0.00
2022-11-30T00:03:54.839Z,0.00
2022-11-30T00:04:54.921Z,0.00
2022-11-30T00:05:54.825Z,0.00
2022-11-30T00:06:54.817Z,0.00
2022-11-30T00:07:54.862Z,0.00
2022-11-30T00:08:54.815Z,0.00
2022-11-30T00:09:54.779Z,0.00
2022-11-30T00:10:54.802Z,0.00
2022-11-30T00:11:54.760Z,0.00
2022-11-30T00:12:54.759Z,0.00
2022-11-30T00:13:54.736Z,0.00
2022-11-30T00:14:54.739Z,0.00
2022-11-30T00:15:54.719Z,0.00
2022-11-30T00:16:54.800Z,0.00
2022-11-30T00:17:54.698Z,0.00
2022-11-30T00:18:54.689Z,0.00
2022-11-30T00:19:54.679Z,0.00
2022-11-30T00:20:54.670Z,0.00
2022-11-30T00:21:54.650Z,0.00
2022-11-30T00:22:54.670Z,0.00
2022-11-30T00:23:54.627Z,0.00
2022-11-30T00:24:54.662Z,0.00
2022-11-30T00:25:54.628Z,0.00
2022-11-30T00:26:54.610Z,0.00
2022-11-30T00:27:54.586Z,0.00
2022-11-30T00:28:54.641Z,0.00
2022-11-30T00:29:54.599Z,0.00
2022-11-30T00:30:54.591Z,0.00
2022-11-30T00:31:54.548Z,0.00
2022-11-30T00:32:54.538Z,0.00
2022-11-30T00:33:54.526Z,0.00
2022-11-30T00:34:54.564Z,0.00
2022-11-30T00:35:54.518Z,0.00
2022-11-30T00:36:54.562Z,0.00
2022-11-30T00:37:54.476Z,0.00
2022-11-30T00:38:54.470Z,0.00
2022-11-30T00:39:54.485Z,0.00
2022-11-30T00:40:54.448Z,0.00
2022-11-30T00:41:54.449Z,0.00
2022-11-30T00:42:54.487Z,0.00
2022-11-30T00:43:54.426Z,0.00
2022-11-30T00:44:54.437Z,0.00
2022-11-30T00:45:54.435Z,0.00
2022-11-30T00:46:54.386Z,0.00
2022-11-30T00:47:54.426Z,0.00
2022-11-30T00:48:54.368Z,0.00
2022-11-30T00:49:54.365Z,0.00
2022-11-30T00:50:54.356Z,0.00
2022-11-30T00:51:54.345Z,0.00
2022-11-30T00:52:54.326Z,0.00
2022-11-30T00:53:54.317Z,0.00
2022-11-30T00:54:54.307Z,0.00
2022-11-30T00:55:54.306Z,0.00
2022-11-30T00:56:54.294Z,0.00
2022-11-30T00:57:54.274Z,0.00
2022-11-30T00:58:54.264Z,0.00
2022-11-30T00:59:54.265Z,0.00
2022-11-30T01:00:54.332Z,0.00
2022-11-30T01:01:54.233Z,0.00
2022-11-30T01:02:54.258Z,0.00
2022-11-30T01:03:54.212Z,0.00
2022-11-30T01:04:54.194Z,0.00
2022-11-30T01:05:54.197Z,0.00
2022-11-30T01:06:54.187Z,0.00
2022-11-30T01:07:54.206Z,0.00
2022-11-30T01:08:54.163Z,0.00
2022-11-30T01:09:54.144Z,0.00
2022-11-30T01:10:54.146Z,0.00
2022-11-30T01:11:54.125Z,0.00
2022-11-30T01:12:54.115Z,0.00
2022-11-30T01:13:54.112Z,0.00
2022-11-30T01:14:54.084Z,0.00
2022-11-30T01:15:54.133Z,0.00
2022-11-30T01:16:56.362Z,0.00
2022-11-30T01:17:54.085Z,0.00
2022-11-30T01:18:54.044Z,0.00
2022-11-30T01:19:54.054Z,0.00
2022-11-30T01:20:54.045Z,0.00
2022-11-30T01:21:54.014Z,0.00
2022-11-30T01:22:54.014Z,0.00
2022-11-30T01:23:53.992Z,0.00
2022-11-30T01:24:53.984Z,0.00
2022-11-30T01:25:53.991Z,0.00
2022-11-30T01:26:53.959Z,0.00
2022-11-30T01:27:53.954Z,0.00
2022-11-30T01:28:53.958Z,0.00
2022-11-30T01:29:53.941Z,0.00
2022-11-30T01:30:54.017Z,0.00
2022-11-30T01:31:53.967Z,0.00
2022-11-30T01:32:53.940Z,0.00
2022-11-30T01:33:53.893Z,0.00
2022-11-30T01:34:53.885Z,0.00
2022-11-30T01:35:53.882Z,0.00
2022-11-30T01:36:53.874Z,0.00
2022-11-30T01:37:53.854Z,0.00
2022-11-30T01:38:53.851Z,0.00
2022-11-30T01:39:53.821Z,0.00
2022-11-30T01:40:53.821Z,0.00
2022-11-30T01:41:53.822Z,0.00
2022-11-30T01:42:53.797Z,0.00
2022-11-30T01:43:53.783Z,0.00
2022-11-30T01:44:53.762Z,0.00
2022-11-30T01:45:53.812Z,0.00
2022-11-30T01:46:53.751Z,0.00
2022-11-30T01:47:53.753Z,0.00
2022-11-30T01:48:53.728Z,0.00
2022-11-30T01:49:53.726Z,0.00
2022-11-30T01:50:53.730Z,0.00
2022-11-30T01:51:53.690Z,0.00
2022-11-30T01:52:53.682Z,0.00
2022-11-30T01:53:53.669Z,0.00
2022-11-30T01:54:53.685Z,0.00
2022-11-30T01:55:53.671Z,0.00
2022-11-30T01:56:53.653Z,0.00
2022-11-30T01:57:53.661Z,0.00
2022-11-30T01:58:53.641Z,0.00
2022-11-30T01:59:53.736Z,0.00
2022-11-30T02:00:53.649Z,0.00
2022-11-30T02:01:53.609Z,0.00
2022-11-30T02:02:53.632Z,0.00
2022-11-30T02:03:53.588Z,0.00
2022-11-30T02:04:53.636Z,0.00
2022-11-30T02:05:53.539Z,0.00
2022-11-30T02:06:53.549Z,0.00
2022-11-30T02:07:53.608Z,0.00
2022-11-30T02:08:53.541Z,0.00
2022-11-30T02:09:53.508Z,0.00
2022-11-30T02:10:53.541Z,0.00
2022-11-30T02:11:53.498Z,0.00
2022-11-30T02:12:53.469Z,0.00
2022-11-30T02:13:53.470Z,0.00
2022-11-30T02:14:53.520Z,0.00
2022-11-30T02:15:53.493Z,0.00
2022-11-30T02:16:53.446Z,0.00
2022-11-30T02:17:53.409Z,0.00
2022-11-30T02:18:53.398Z,0.00
2022-11-30T02:19:53.387Z,0.00
2022-11-30T02:20:53.378Z,0.00
2022-11-30T02:21:53.376Z,0.00
2022-11-30T02:22:53.357Z,0.00
2022-11-30T02:23:53.346Z,0.00
2022-11-30T02:24:53.341Z,0.00
2022-11-30T02:25:53.316Z,0.00
2022-11-30T02:26:53.327Z,0.00
2022-11-30T02:27:53.335Z,0.00
2022-11-30T02:28:53.336Z,0.00
2022-11-30T02:29:53.391Z,0.00
2022-11-30T02:30:53.353Z,0.00
2022-11-30T02:31:53.286Z,0.00
2022-11-30T02:32:53.254Z,0.00
2022-11-30T02:33:53.246Z,0.00
2022-11-30T02:34:53.230Z,0.00
2022-11-30T02:35:55.368Z,0.00
2022-11-30T02:36:53.235Z,0.00
2022-11-30T02:37:53.216Z,0.00
2022-11-30T02:38:53.189Z,0.00
2022-11-30T02:39:53.167Z,0.00
2022-11-30T02:40:53.169Z,0.00
2022-11-30T02:41:53.162Z,0.00
2022-11-30T02:42:53.138Z,0.00
2022-11-30T02:43:53.136Z,0.00
2022-11-30T02:44:53.115Z,0.00
2022-11-30T02:45:53.116Z,0.00
2022-11-30T02:46:53.107Z,0.00
2022-11-30T02:47:53.084Z,0.00
2022-11-30T02:48:53.078Z,0.00
2022-11-30T02:49:53.054Z,0.00
2022-11-30T02:50:53.054Z,0.00
2022-11-30T02:51:53.064Z,0.00
2022-11-30T02:52:53.025Z,0.00
2022-11-30T02:53:53.014Z,0.00
2022-11-30T02:54:53.016Z,0.00
2022-11-30T02:55:52.997Z,0.00
2022-11-30T02:56:53.014Z,0.00
2022-11-30T02:57:52.984Z,0.00
2022-11-30T02:58:52.973Z,0.00
2022-11-30T02:59:52.953Z,0.00
2022-11-30T03:00:52.944Z,0.00
2022-11-30T03:01:52.985Z,0.00
2022-11-30T03:02:53.017Z,0.00
2022-11-30T03:03:52.905Z,0.00
2022-11-30T03:04:52.906Z,0.00
2022-11-30T03:05:52.888Z,0.00
2022-11-30T03:06:52.884Z,0.00
2022-11-30T03:07:52.927Z,0.00
2022-11-30T03:08:52.855Z,0.00
2022-11-30T03:09:52.851Z,0.00
2022-11-30T03:10:52.832Z,0.00
2022-11-30T03:11:52.852Z,0.00
2022-11-30T03:12:52.814Z,0.00
2022-11-30T03:13:52.793Z,0.00
2022-11-30T03:14:52.794Z,0.00
2022-11-30T03:15:52.830Z,0.00
2022-11-30T03:16:52.826Z,0.00
2022-11-30T03:17:52.753Z,0.00
2022-11-30T03:18:52.782Z,0.00
2022-11-30T03:19:52.734Z,0.00
2022-11-30T03:20:52.734Z,0.00
2022-11-30T03:21:52.723Z,0.00
2022-11-30T03:22:52.703Z,0.00
2022-11-30T03:23:52.691Z,0.00
2022-11-30T03:24:52.682Z,0.00
2022-11-30T03:25:52.662Z,0.00
2022-11-30T03:26:52.685Z,0.00
2022-11-30T03:27:52.672Z,0.00
2022-11-30T03:28:52.642Z,0.00
2022-11-30T03:29:52.631Z,0.00
2022-11-30T03:30:52.643Z,0.00
2022-11-30T03:31:52.611Z,0.00
2022-11-30T03:32:52.592Z,0.00
2022-11-30T03:33:52.580Z,0.00
2022-11-30T03:34:52.583Z,0.00
2022-11-30T03:35:52.559Z,0.00
2022-11-30T03:36:52.571Z,0.00
2022-11-30T03:37:52.542Z,0.00
2022-11-30T03:38:52.529Z,0.00
2022-11-30T03:39:57.885Z,0.00
2022-11-30T03:40:53.510Z,0.00
2022-11-30T03:41:52.501Z,0.00
2022-11-30T03:42:52.490Z,0.00
2022-11-30T03:43:52.474Z,0.00
2022-11-30T03:44:52.474Z,0.00
2022-11-30T03:45:52.451Z,0.00
2022-11-30T03:46:52.500Z,0.00
2022-11-30T03:47:52.451Z,0.00
2022-11-30T03:48:52.423Z,0.00
2022-11-30T03:49:52.399Z,0.00
2022-11-30T03:50:52.407Z,0.00
2022-11-30T03:51:52.387Z,0.00
2022-11-30T03:52:52.379Z,0.00
2022-11-30T03:53:52.361Z,0.00
2022-11-30T03:54:52.352Z,0.00
2022-11-30T03:55:52.343Z,0.00
2022-11-30T03:56:52.331Z,0.00
2022-11-30T03:57:52.369Z,0.00
2022-11-30T03:58:52.368Z,0.00
2022-11-30T03:59:52.383Z,0.00
2022-11-30T04:00:52.289Z,0.00
2022-11-30T04:01:52.296Z,0.00
2022-11-30T04:02:52.304Z,0.00
2022-11-30T04:03:52.258Z,0.00
2022-11-30T04:04:52.271Z,0.00
2022-11-30T04:05:52.245Z,0.00
2022-11-30T04:06:52.231Z,0.00
2022-11-30T04:07:52.231Z,0.00
2022-11-30T04:08:52.198Z,0.00
2022-11-30T04:09:52.187Z,0.00
2022-11-30T04:10:52.177Z,0.00
2022-11-30T04:11:52.167Z,0.00
2022-11-30T04:12:52.166Z,0.00
2022-11-30T04:13:52.191Z,0.00
2022-11-30T04:14:52.139Z,0.00
2022-11-30T04:15:52.156Z,0.00
2022-11-30T04:16:52.118Z,0.00
2022-11-30T04:17:52.107Z,0.00
2022-11-30T04:18:52.097Z,0.00
2022-11-30T04:19:52.087Z,0.00
2022-11-30T04:20:52.067Z,0.00
2022-11-30T04:21:52.080Z,0.00
2022-11-30T04:22:52.056Z,0.00
2022-11-30T04:23:52.036Z,0.00
2022-11-30T04:24:52.026Z,0.00
2022-11-30T04:25:52.023Z,0.00
2022-11-30T04:26:52.006Z,0.00
2022-11-30T04:27:52.006Z,0.00
2022-11-30T04:28:51.989Z,0.00
2022-11-30T04:29:51.968Z,0.00
2022-11-30T04:30:51.957Z,0.00
2022-11-30T04:31:51.945Z,0.00
2022-11-30T04:32:51.977Z,0.00
2022-11-30T04:33:51.925Z,0.00
2022-11-30T04:34:51.924Z,0.00
2022-11-30T04:35:51.912Z,0.00
2022-11-30T04:36:54.882Z,0.00
2022-11-30T04:37:52.894Z,0.00
2022-11-30T04:38:51.876Z,0.00
2022-11-30T04:39:51.857Z,0.00
2022-11-30T04:40:51.845Z,0.00
2022-11-30T04:41:51.848Z,0.00
2022-11-30T04:42:51.836Z,0.00
2022-11-30T04:43:51.814Z,0.00
2022-11-30T04:44:51.806Z,0.00
2022-11-30T04:45:51.798Z,0.00
2022-11-30T04:46:51.829Z,0.00
2022-11-30T04:47:51.783Z,0.00
2022-11-30T04:48:51.807Z,0.00
2022-11-30T04:49:51.744Z,0.00
2022-11-30T04:50:51.733Z,0.00
2022-11-30T04:51:51.755Z,0.00
2022-11-30T04:52:51.743Z,0.00
2022-11-30T04:53:51.704Z,0.00
2022-11-30T04:54:51.698Z,0.00
2022-11-30T04:55:51.715Z,0.00
2022-11-30T04:56:51.682Z,0.00
2022-11-30T04:57:51.927Z,0.00
2022-11-30T04:58:51.823Z,0.00
2022-11-30T04:59:51.660Z,0.00
2022-11-30T05:00:51.635Z,0.00
2022-11-30T05:01:51.721Z,0.00
2022-11-30T05:02:53.205Z,0.00
2022-11-30T05:03:51.623Z,0.00
2022-11-30T05:04:51.888Z,0.00
2022-11-30T05:05:51.605Z,0.00
2022-11-30T05:06:51.561Z,0.00
2022-11-30T05:07:51.747Z,0.00
2022-11-30T05:08:51.541Z,0.00
2022-11-30T05:09:51.594Z,0.00
2022-11-30T05:10:53.136Z,0.00
2022-11-30T05:11:51.518Z,0.00
2022-11-30T05:12:51.500Z,0.00
2022-11-30T05:13:51.502Z,0.00
2022-11-30T05:14:51.501Z,0.00
2022-11-30T05:15:51.556Z,0.00
2022-11-30T05:16:51.632Z,0.00
2022-11-30T05:17:51.449Z,0.00
2022-11-30T05:18:51.441Z,0.00
2022-11-30T05:19:51.425Z,0.00
2022-11-30T05:20:51.411Z,0.00
2022-11-30T05:21:51.412Z,0.00
2022-11-30T05:22:51.385Z,0.00
2022-11-30T05:23:51.391Z,0.00
2022-11-30T05:24:51.391Z,0.00
2022-11-30T05:25:51.383Z,0.00
2022-11-30T05:26:51.360Z,0.00
2022-11-30T05:27:51.330Z,0.00
2022-11-30T05:28:51.346Z,0.00
2022-11-30T05:29:51.310Z,0.00
2022-11-30T05:30:51.328Z,0.00
2022-11-30T05:31:51.324Z,0.00
2022-11-30T05:32:51.300Z,0.00
2022-11-30T05:33:51.291Z,0.00
2022-11-30T05:34:52.130Z,0.00
2022-11-30T05:35:51.250Z,0.00
2022-11-30T05:36:51.262Z,0.00
2022-11-30T05:37:51.228Z,0.00
2022-11-30T05:38:51.239Z,0.00
2022-11-30T05:39:51.218Z,0.00
2022-11-30T05:40:51.191Z,0.00
2022-11-30T05:41:51.181Z,0.00
2022-11-30T05:42:51.191Z,0.00
2022-11-30T05:43:51.191Z,0.00
2022-11-30T05:44:51.334Z,0.00
2022-11-30T05:45:51.139Z,0.00
2022-11-30T05:46:51.177Z,0.00
2022-11-30T05:47:51.120Z,0.00
2022-11-30T05:48:51.127Z,0.00
2022-11-30T05:49:51.091Z,0.00
2022-11-30T05:50:51.088Z,0.00
2022-11-30T05:51:51.078Z,0.00
2022-11-30T05:52:51.108Z,0.00
2022-11-30T05:53:51.058Z,0.00
2022-11-30T05:54:51.041Z,0.00
2022-11-30T05:55:51.073Z,0.00
2022-11-30T05:56:54.754Z,0.00
2022-11-30T05:57:51.009Z,0.00
2022-11-30T05:58:50.986Z,0.00
2022-11-30T05:59:50.999Z,0.00
2022-11-30T06:00:50.982Z,0.00
2022-11-30T06:01:51.069Z,0.00
2022-11-30T06:02:51.006Z,0.00
2022-11-30T06:03:50.971Z,0.00
2022-11-30T06:04:50.938Z,0.00
2022-11-30T06:05:50.917Z,0.00
2022-11-30T06:06:50.939Z,0.00
2022-11-30T06:07:50.951Z,0.00
2022-11-30T06:08:50.877Z,0.00
2022-11-30T06:09:50.893Z,0.00
2022-11-30T06:10:50.867Z,0.00
2022-11-30T06:11:50.862Z,0.00
2022-11-30T06:12:50.848Z,0.00
2022-11-30T06:13:50.836Z,0.00
2022-11-30T06:14:50.830Z,0.00
2022-11-30T06:15:50.805Z,0.00
2022-11-30T06:16:50.860Z,0.00
2022-11-30T06:17:50.803Z,0.00
2022-11-30T06:18:50.775Z,0.00
2022-11-30T06:19:50.765Z,0.00
2022-11-30T06:20:50.749Z,0.00
2022-11-30T06:21:50.753Z,0.00
2022-11-30T06:22:50.739Z,0.00
2022-11-30T06:23:50.733Z,0.00
2022-11-30T06:24:50.793Z,0.00
2022-11-30T06:25:50.698Z,0.00
2022-11-30T06:26:50.690Z,0.00
2022-11-30T06:27:50.839Z,0.00
2022-11-30T06:28:50.668Z,0.00
2022-11-30T06:29:50.712Z,0.00
2022-11-30T06:30:50.646Z,0.00
2022-11-30T06:31:50.724Z,0.00
2022-11-30T06:32:50.719Z,0.00
2022-11-30T06:33:50.613Z,0.00
2022-11-30T06:34:50.615Z,0.00
2022-11-30T06:35:50.594Z,0.00
2022-11-30T06:36:50.611Z,0.00
2022-11-30T06:37:50.572Z,0.00
2022-11-30T06:38:50.554Z,0.00
2022-11-30T06:40:05.882Z,0.00
2022-11-30T06:40:51.543Z,0.00
2022-11-30T06:41:54.479Z,0.00
2022-11-30T06:42:50.522Z,0.00
2022-11-30T06:43:50.505Z,0.00
2022-11-30T06:44:50.484Z,1.00
2022-11-30T06:45:50.507Z,1.00
2022-11-30T06:46:50.422Z,1.00
2022-11-30T06:47:50.411Z,1.00
2022-11-30T06:48:50.396Z,2.00
2022-11-30T06:49:50.430Z,2.00
2022-11-30T06:50:50.436Z,2.00
2022-11-30T06:51:50.378Z,3.00
2022-11-30T06:52:50.348Z,1.00
2022-11-30T06:53:50.346Z,2.00
2022-11-30T06:54:50.353Z,2.00
2022-11-30T06:55:50.312Z,3.00
2022-11-30T06:56:50.308Z,4.00
2022-11-30T06:57:50.300Z,5.00
2022-11-30T06:58:50.329Z,6.00
2022-11-30T06:59:50.287Z,12.00
2022-11-30T07:00:50.316Z,16.00
2022-11-30T07:01:50.252Z,18.00
2022-11-30T07:02:50.379Z,20.00
2022-11-30T07:03:50.251Z,20.00
2022-11-30T07:04:50.485Z,19.00
2022-11-30T07:05:50.230Z,23.00
2022-11-30T07:06:50.191Z,27.00
2022-11-30T07:07:50.248Z,30.00
2022-11-30T07:08:50.169Z,31.00
2022-11-30T07:09:50.199Z,30.00
2022-11-30T07:10:50.153Z,31.00
2022-11-30T07:11:50.141Z,33.00
2022-11-30T07:12:50.130Z,38.00
2022-11-30T07:13:50.125Z,47.00
2022-11-30T07:14:50.353Z,54.00
2022-11-30T07:15:50.151Z,57.00
2022-11-30T07:16:50.131Z,57.00
2022-11-30T07:17:50.093Z,62.00
2022-11-30T07:18:50.060Z,66.00
2022-11-30T07:19:50.060Z,70.00
2022-11-30T07:20:50.040Z,79.00
2022-11-30T07:21:50.041Z,87.00
2022-11-30T07:22:50.024Z,93.00
2022-11-30T07:23:55.878Z,95.00
2022-11-30T07:24:51.083Z,100.00
2022-11-30T07:25:50.004Z,101.00
2022-11-30T07:26:49.968Z,98.00
2022-11-30T07:27:49.995Z,92.00
2022-11-30T07:28:49.959Z,91.00
2022-11-30T07:29:49.950Z,97.00
2022-11-30T07:30:49.950Z,102.00
2022-11-30T07:31:49.973Z,111.00
2022-11-30T07:32:49.910Z,121.00
2022-11-30T07:33:50.163Z,131.00
2022-11-30T07:34:50.229Z,137.00
2022-11-30T07:35:49.878Z,138.00
2022-11-30T07:36:49.857Z,140.00
2022-11-30T07:37:49.869Z,155.00
2022-11-30T07:38:49.851Z,173.00
2022-11-30T07:39:49.840Z,184.00
2022-11-30T07:40:49.844Z,173.00
2022-11-30T07:41:49.808Z,158.00
2022-11-30T07:42:49.796Z,154.00
2022-11-30T07:43:49.781Z,153.00
2022-11-30T07:44:55.299Z,155.00
2022-11-30T07:45:50.867Z,153.00
2022-11-30T07:46:49.774Z,160.00
2022-11-30T07:47:49.758Z,165.00
2022-11-30T07:48:49.729Z,159.00
2022-11-30T07:49:49.718Z,153.00
2022-11-30T07:50:49.698Z,146.00
2022-11-30T07:51:49.720Z,144.00
2022-11-30T07:52:49.706Z,148.00
2022-11-30T07:53:49.683Z,165.00
2022-11-30T07:54:50.013Z,176.00
2022-11-30T07:55:54.058Z,177.00
2022-11-30T07:56:50.648Z,182.00
2022-11-30T07:57:49.639Z,192.00
2022-11-30T07:58:49.640Z,189.00
2022-11-30T07:59:49.952Z,195.00
2022-11-30T08:00:49.754Z,191.00
2022-11-30T08:01:49.726Z,197.00
2022-11-30T08:02:49.650Z,200.00
2022-11-30T08:03:49.576Z,179.00
2022-11-30T08:04:49.859Z,163.00
2022-11-30T08:05:49.573Z,162.00
2022-11-30T08:06:49.606Z,169.00
2022-11-30T08:07:49.634Z,179.00
2022-11-30T08:08:49.514Z,186.00
2022-11-30T08:09:49.520Z,194.00
2022-11-30T08:10:49.495Z,199.00
2022-11-30T08:11:49.526Z,209.00
2022-11-30T08:12:49.495Z,227.00
2022-11-30T08:13:49.484Z,244.00
2022-11-30T08:15:18.261Z,257.00
2022-11-30T08:15:50.439Z,276.00
2022-11-30T08:16:49.466Z,285.00
2022-11-30T08:17:49.423Z,313.00
2022-11-30T08:18:49.428Z,328.00
2022-11-30T08:19:49.407Z,333.00
2022-11-30T08:20:50.230Z,366.00
2022-11-30T08:21:49.396Z,451.00
2022-11-30T08:22:49.382Z,459.00
2022-11-30T08:23:49.427Z,456.00
2022-11-30T08:24:49.741Z,438.00
2022-11-30T08:25:49.370Z,463.00
2022-11-30T08:26:49.340Z,441.00
2022-11-30T08:27:49.454Z,435.00
2022-11-30T08:28:49.303Z,510.00
2022-11-30T08:29:49.286Z,555.00
2022-11-30T08:30:49.308Z,524.00
2022-11-30T08:31:49.283Z,502.00
2022-11-30T08:32:49.256Z,529.00
2022-11-30T08:33:49.255Z,488.00
2022-11-30T08:34:49.406Z,433.00
2022-11-30T08:35:49.319Z,460.00
2022-11-30T08:36:51.967Z,529.00
2022-11-30T08:37:49.244Z,611.00
2022-11-30T08:38:49.224Z,615.00
2022-11-30T08:39:49.237Z,571.00
2022-11-30T08:40:49.215Z,492.00
2022-11-30T08:41:49.234Z,465.00
2022-11-30T08:42:49.222Z,571.00
2022-11-30T08:43:49.184Z,574.00
2022-11-30T08:44:49.224Z,638.00
2022-11-30T08:45:54.229Z,635.00
2022-11-30T08:46:52.107Z,572.00
2022-11-30T08:47:49.134Z,538.00
2022-11-30T08:48:49.126Z,545.00
2022-11-30T08:49:49.132Z,575.00
2022-11-30T08:50:49.112Z,587.00
2022-11-30T08:52:50.116Z,655.00
2022-11-30T08:53:49.095Z,707.00
2022-11-30T08:54:49.414Z,813.00
2022-11-30T08:55:49.171Z,904.00
2022-11-30T08:56:49.075Z,835.00
2022-11-30T08:57:49.032Z,848.00
2022-11-30T08:58:49.026Z,922.00
2022-11-30T08:59:49.021Z,1025.00
2022-11-30T09:00:49.203Z,1016.00
2022-11-30T09:01:49.064Z,940.00
2022-11-30T09:02:49.248Z,1061.00
2022-11-30T09:03:48.975Z,1144.00
2022-11-30T09:04:49.418Z,1294.00
2022-11-30T09:05:48.981Z,1222.00
2022-11-30T09:06:48.939Z,1071.00
2022-11-30T09:07:48.963Z,850.00
2022-11-30T09:08:48.963Z,918.00
2022-11-30T09:09:48.983Z,953.00
2022-11-30T09:10:48.952Z,983.00
2022-11-30T09:11:49.592Z,911.00
2022-11-30T09:12:49.001Z,874.00
2022-11-30T09:13:48.863Z,803.00
2022-11-30T09:14:55.618Z,734.00
2022-11-30T09:15:49.975Z,670.00
2022-11-30T09:16:48.951Z,661.00
2022-11-30T09:17:48.820Z,632.00
2022-11-30T09:18:49.863Z,625.00
2022-11-30T09:19:48.899Z,667.00
2022-11-30T09:20:49.041Z,745.00
2022-11-30T09:21:51.798Z,669.00
2022-11-30T09:22:49.057Z,733.00
2022-11-30T09:23:49.096Z,816.00
2022-11-30T09:24:49.642Z,846.00
2022-11-30T09:25:48.884Z,834.00
2022-11-30T09:26:48.875Z,891.00
2022-11-30T09:27:58.566Z,905.00
2022-11-30T09:28:48.756Z,912.00
2022-11-30T09:29:48.839Z,894.00
2022-11-30T09:30:48.964Z,887.00
2022-11-30T09:31:48.735Z,937.00
2022-11-30T09:32:48.654Z,829.00
2022-11-30T09:33:48.603Z,837.00
2022-11-30T09:34:50.699Z,1070.00
2022-11-30T09:35:48.574Z,1619.00
2022-11-30T09:36:48.554Z,1711.00
2022-11-30T09:37:48.553Z,1480.00
2022-11-30T09:38:48.533Z,1533.00
2022-11-30T09:39:48.524Z,1574.00
2022-11-30T09:40:48.518Z,1679.00
2022-11-30T09:41:48.502Z,1629.00
2022-11-30T09:42:48.492Z,1485.00
2022-11-30T09:43:48.473Z,1349.00
2022-11-30T09:44:48.836Z,1269.00
2022-11-30T09:45:48.520Z,1152.00
2022-11-30T09:46:48.467Z,1065.00
2022-11-30T09:47:48.453Z,1129.00
2022-11-30T09:48:48.421Z,1016.00
2022-11-30T09:49:48.424Z,1021.00
2022-11-30T09:50:48.402Z,1268.00
2022-11-30T09:51:48.401Z,1565.00
2022-11-30T09:52:48.392Z,1468.00
2022-11-30T09:53:48.391Z,1502.00
2022-11-30T09:54:48.706Z,1857.00
2022-11-30T09:55:48.339Z,1962.00
2022-11-30T09:56:48.331Z,2044.00
2022-11-30T09:57:48.343Z,2088.00
2022-11-30T09:58:48.343Z,2065.00
2022-11-30T09:59:48.293Z,1802.00
2022-11-30T10:00:48.547Z,1548.00
2022-11-30T10:01:52.107Z,1416.00
2022-11-30T10:02:49.471Z,1378.00
2022-11-30T10:03:48.294Z,1122.00
2022-11-30T10:04:48.560Z,959.00
2022-11-30T10:05:48.308Z,1020.00
2022-11-30T10:06:48.267Z,1153.00
2022-11-30T10:07:48.241Z,918.00
2022-11-30T10:08:50.916Z,1102.00
2022-11-30T10:10:08.970Z,1230.00
2022-11-30T10:10:49.232Z,1373.00
2022-11-30T10:11:48.175Z,1494.00
2022-11-30T10:12:48.184Z,1310.00
2022-11-30T10:13:48.139Z,1385.00
2022-11-30T10:14:48.724Z,1558.00
2022-11-30T10:15:48.315Z,1453.00
2022-11-30T10:16:48.142Z,1539.00
2022-11-30T10:17:48.149Z,1894.00
2022-11-30T10:18:48.150Z,2080.00
2022-11-30T10:19:48.090Z,2154.00
2022-11-30T10:20:48.098Z,1921.00
2022-11-30T10:21:48.059Z,1987.00
2022-11-30T10:22:48.051Z,2273.00
2022-11-30T10:23:48.039Z,1912.00
2022-11-30T10:24:48.369Z,2237.00
2022-11-30T10:25:48.019Z,2509.00
2022-11-30T10:26:48.022Z,2204.00
2022-11-30T10:27:47.999Z,2611.00
2022-11-30T10:28:49.033Z,3010.00
2022-11-30T10:29:47.987Z,2674.00
2022-11-30T10:30:48.023Z,2188.00
2022-11-30T10:31:47.968Z,2105.00
2022-11-30T10:32:47.973Z,1964.00
2022-11-30T10:33:48.138Z,2621.00
2022-11-30T10:34:48.402Z,2297.00
2022-11-30T10:35:48.004Z,1953.00
2022-11-30T10:36:47.974Z,1807.00
2022-11-30T10:37:47.952Z,1621.00
2022-11-30T10:38:48.013Z,1516.00
2022-11-30T10:39:47.981Z,1333.00
2022-11-30T10:40:47.913Z,1195.00
2022-11-30T10:41:47.915Z,1134.00
2022-11-30T10:42:47.902Z,1066.00
2022-11-30T10:43:47.983Z,1094.00
2022-11-30T10:44:48.355Z,1125.00
2022-11-30T10:45:47.923Z,1091.00
2022-11-30T10:46:47.949Z,1138.00
2022-11-30T10:47:47.846Z,1178.00
2022-11-30T10:48:47.850Z,1121.00
2022-11-30T10:49:47.904Z,1135.00
2022-11-30T10:50:47.834Z,1490.00
2022-11-30T10:51:47.792Z,1737.00
2022-11-30T10:52:48.056Z,1551.00
2022-11-30T10:53:47.771Z,1595.00
2022-11-30T10:54:48.113Z,1631.00
2022-11-30T10:55:47.749Z,1330.00
2022-11-30T10:56:47.850Z,1181.00
2022-11-30T10:57:47.721Z,1084.00
2022-11-30T10:58:47.701Z,1163.00
2022-11-30T10:59:47.930Z,1398.00
2022-11-30T11:00:47.742Z,1632.00
2022-11-30T11:01:47.906Z,1558.00
2022-11-30T11:02:47.732Z,1555.00
2022-11-30T11:03:47.719Z,1433.00
2022-11-30T11:04:47.631Z,1386.00
2022-11-30T11:05:47.631Z,1585.00
2022-11-30T11:06:47.763Z,1860.00
2022-11-30T11:07:47.746Z,1869.00
2022-11-30T11:08:48.042Z,1700.00
2022-11-30T11:09:47.898Z,1585.00
2022-11-30T11:10:47.594Z,1484.00
2022-11-30T11:11:47.613Z,1362.00
2022-11-30T11:12:47.672Z,1567.00
2022-11-30T11:13:47.608Z,1815.00
2022-11-30T11:14:47.557Z,1715.00
2022-11-30T11:15:47.635Z,1699.00
2022-11-30T11:16:47.477Z,1633.00
2022-11-30T11:17:47.459Z,1480.00
2022-11-30T11:18:47.497Z,1571.00
2022-11-30T11:19:47.915Z,1652.00
2022-11-30T11:20:47.429Z,1725.00
2022-11-30T11:21:47.411Z,1404.00
2022-11-30T11:22:47.518Z,1334.00
2022-11-30T11:23:47.409Z,1162.00
2022-11-30T11:24:47.387Z,1065.00
2022-11-30T11:25:47.373Z,993.00
2022-11-30T11:26:47.405Z,967.00
2022-11-30T11:27:47.337Z,930.00
2022-11-30T11:28:47.373Z,954.00
2022-11-30T11:29:47.544Z,1129.00
2022-11-30T11:30:47.391Z,1110.00
2022-11-30T11:31:47.347Z,1100.00
2022-11-30T11:32:47.307Z,1266.00
2022-11-30T11:33:47.330Z,1464.00
2022-11-30T11:34:51.119Z,1682.00
2022-11-30T11:35:47.257Z,1761.00
2022-11-30T11:36:47.266Z,1946.00
2022-11-30T11:37:47.236Z,2048.00
2022-11-30T11:38:47.228Z,1832.00
2022-11-30T11:39:47.505Z,2039.00
2022-11-30T11:40:47.514Z,1889.00
2022-11-30T11:41:47.189Z,1580.00
2022-11-30T11:42:47.183Z,1652.00
2022-11-30T11:43:47.167Z,1570.00
2022-11-30T11:44:47.167Z,1461.00
2022-11-30T11:45:47.173Z,1299.00
2022-11-30T11:46:47.211Z,1101.00
2022-11-30T11:47:47.141Z,858.00
2022-11-30T11:48:47.120Z,1320.00
2022-11-30T11:49:47.314Z,1433.00
2022-11-30T11:51:48.077Z,1521.00
2022-11-30T11:52:47.096Z,1433.00
2022-11-30T11:53:53.033Z,1254.00
2022-11-30T11:54:48.062Z,1113.00
2022-11-30T11:55:47.045Z,902.00
2022-11-30T11:56:47.075Z,1513.00
2022-11-30T11:57:47.014Z,1506.00
2022-11-30T11:58:47.032Z,1125.00
2022-11-30T11:59:47.298Z,1296.00
2022-11-30T12:00:46.987Z,1527.00
2022-11-30T12:01:46.975Z,1570.00
2022-11-30T12:02:47.105Z,1739.00
2022-11-30T12:03:46.944Z,1552.00
2022-11-30T12:04:47.011Z,1803.00
2022-11-30T12:05:46.929Z,1643.00
2022-11-30T12:06:46.964Z,1331.00
2022-11-30T12:07:46.977Z,1149.00
2022-11-30T12:08:46.901Z,1085.00
2022-11-30T12:09:47.178Z,976.00
2022-11-30T12:10:52.233Z,900.00
2022-11-30T12:11:47.881Z,819.00
2022-11-30T12:12:51.985Z,743.00
2022-11-30T12:13:47.842Z,865.00
2022-11-30T12:14:46.843Z,949.00
2022-11-30T12:15:46.913Z,1115.00
2022-11-30T12:16:46.833Z,1342.00
2022-11-30T12:17:46.813Z,1593.00
2022-11-30T12:18:46.796Z,1839.00
2022-11-30T12:19:46.945Z,1875.00
2022-11-30T12:20:46.773Z,1948.00
2022-11-30T12:21:46.755Z,2288.00
2022-11-30T12:22:46.758Z,2518.00
2022-11-30T12:23:46.732Z,2283.00
2022-11-30T12:24:46.772Z,1764.00
2022-11-30T12:25:46.713Z,1463.00
2022-11-30T12:26:46.703Z,1249.00
2022-11-30T12:27:52.016Z,1187.00
2022-11-30T12:28:47.715Z,1132.00
2022-11-30T12:29:47.116Z,970.00
2022-11-30T12:30:46.661Z,852.00
2022-11-30T12:31:46.675Z,876.00
2022-11-30T12:32:46.667Z,1131.00
2022-11-30T12:33:46.679Z,1159.00
2022-11-30T12:34:46.642Z,1444.00
2022-11-30T12:35:46.610Z,1329.00
2022-11-30T12:36:46.614Z,1160.00
2022-11-30T12:37:47.798Z,1161.00
2022-11-30T12:38:46.572Z,1042.00
2022-11-30T12:39:46.920Z,1517.00
2022-11-30T12:40:46.560Z,1866.00
2022-11-30T12:41:46.551Z,1719.00
2022-11-30T12:42:46.558Z,1802.00
2022-11-30T12:43:46.561Z,1955.00
2022-11-30T12:44:46.529Z,1856.00
2022-11-30T12:45:46.514Z,1628.00
2022-11-30T12:46:46.554Z,1395.00
2022-11-30T12:47:46.507Z,1484.00
2022-11-30T12:48:46.586Z,1548.00
2022-11-30T12:49:46.761Z,1411.00
2022-11-30T12:50:46.461Z,1319.00
2022-11-30T12:51:46.458Z,1272.00